Time;durP1;ratioP1;P1;durP2;ratioP2;P2;SDS_P1;SDS_P2;PMS_P1;PMS_P2;Temp;Humidity;BMP_temperature;BMP_pressure;BME280_temperature;BME280_humidity;BME280_pressure;Samples;Min_cycle;Max_cycle;Signal;HPM_P1;HPM_P2
2021/12/14 00:00:41;;;;;;;18.30;9.00;;;8.70;99.90;;;;;;5022330;28;20029;-66
2021/12/14 00:03:09;;;;;;;17.17;9.43;;;8.70;99.90;;;;;;5017131;28;20083;-66
2021/12/14 00:05:36;;;;;;;16.88;8.90;;;8.60;99.90;;;;;;5049064;28;20174;-66
2021/12/14 00:08:03;;;;;;;16.23;8.50;;;8.60;99.90;;;;;;5025679;28;21356;-65
2021/12/14 00:13:25;;;;;;;22.30;9.60;;;8.60;99.90;;;;;;5047793;28;20087;-66
2021/12/14 00:15:52;;;;;;;19.63;8.73;;;8.60;99.90;;;;;;5044367;28;20052;-65
2021/12/14 00:18:18;;;;;;;18.05;9.13;;;8.60;99.90;;;;;;5047457;28;20605;-66
2021/12/14 00:21:27;;;;;;;15.50;8.80;;;8.60;99.90;;;;;;5048956;28;20116;-66
2021/12/14 00:24:06;;;;;;;19.48;9.25;;;8.60;99.90;;;;;;5009383;28;20386;-67
2021/12/14 00:26:36;;;;;;;18.13;9.68;;;8.60;99.90;;;;;;5048645;28;20068;-66
2021/12/14 00:29:02;;;;;;;15.55;9.60;;;8.60;99.90;;;;;;5029236;28;20388;-66
2021/12/14 00:31:28;;;;;;;15.30;9.00;;;8.60;99.90;;;;;;5047370;28;20040;-66
2021/12/14 00:33:56;;;;;;;15.63;9.43;;;8.60;99.90;;;;;;5028036;28;20396;-67
2021/12/14 00:36:22;;;;;;;15.95;8.45;;;8.60;99.90;;;;;;5042189;28;20036;-66
2021/12/14 00:38:51;;;;;;;20.23;9.83;;;8.60;99.90;;;;;;5028475;28;20181;-67
2021/12/14 00:41:20;;;;;;;18.25;9.15;;;8.50;99.90;;;;;;5047378;28;20049;-67
2021/12/14 00:43:46;;;;;;;18.83;9.52;;;8.50;99.90;;;;;;5045513;28;20044;-66
2021/12/14 00:46:13;;;;;;;17.48;8.75;;;8.60;99.90;;;;;;5046214;28;20037;-65
2021/12/14 00:48:40;;;;;;;17.95;8.70;;;8.60;99.90;;;;;;5045452;28;20067;-64
2021/12/14 00:51:08;;;;;;;14.98;8.65;;;8.50;99.90;;;;;;5040544;28;20041;-65
2021/12/14 00:53:34;;;;;;;13.88;8.80;;;8.60;99.90;;;;;;5042026;28;20036;-68
2021/12/14 00:56:04;;;;;;;14.02;8.13;;;8.50;99.90;;;;;;5040006;28;20043;-65
2021/12/14 00:58:30;;;;;;;15.10;9.27;;;8.50;99.90;;;;;;5027015;28;20112;-65
2021/12/14 01:01:04;;;;;;;18.80;9.30;;;8.50;99.90;;;;;;5043361;28;20323;-66
2021/12/14 01:03:32;;;;;;;18.63;8.30;;;8.50;99.90;;;;;;5046030;28;20033;-66
2021/12/14 01:05:59;;;;;;;16.00;9.05;;;8.50;99.90;;;;;;5039786;28;20088;-65
2021/12/14 01:08:29;;;;;;;21.05;10.02;;;8.50;99.90;;;;;;5025474;28;20109;-66
2021/12/14 01:11:06;;;;;;;17.75;9.52;;;8.50;99.90;;;;;;5029077;28;20040;-66
2021/12/14 01:13:37;;;;;;;17.93;9.37;;;8.50;99.90;;;;;;5043659;28;20049;-68
2021/12/14 01:16:17;;;;;;;16.95;9.25;;;8.50;99.90;;;;;;5043246;28;20652;-66
2021/12/14 01:18:49;;;;;;;19.40;9.27;;;8.50;99.90;;;;;;5044261;28;20037;-66
2021/12/14 01:24:19;;;;;;;18.20;9.57;;;8.50;99.90;;;;;;5022813;28;20139;-65
2021/12/14 01:26:45;;;;;;;15.70;8.88;;;8.40;99.90;;;;;;5021117;28;20079;-71
2021/12/14 01:29:11;;;;;;;18.00;10.07;;;8.50;99.90;;;;;;5025927;28;20041;-69
2021/12/14 01:31:40;;;;;;;17.13;9.30;;;8.40;99.90;;;;;;5023926;28;20056;-65
2021/12/14 01:34:12;;;;;;;17.10;9.80;;;8.40;99.90;;;;;;5041522;28;20466;-65
2021/12/14 01:36:45;;;;;;;17.42;9.77;;;8.50;99.90;;;;;;5024085;28;20141;-67
2021/12/14 01:41:53;;;;;;;18.63;9.88;;;8.50;99.90;;;;;;5045112;28;20037;-68
2021/12/14 01:44:19;;;;;;;16.98;9.30;;;8.50;99.90;;;;;;5044957;28;20037;-66
2021/12/14 01:46:48;;;;;;;21.37;10.70;;;8.40;99.90;;;;;;5039881;28;20029;-65
2021/12/14 01:49:15;;;;;;;18.77;10.63;;;8.50;99.90;;;;;;5042259;28;20048;-66
2021/12/14 01:51:46;;;;;;;16.92;9.80;;;8.40;99.90;;;;;;5044921;28;20144;-66
2021/12/14 01:54:16;;;;;;;20.00;11.02;;;8.40;99.90;;;;;;5044892;28;20053;-65
2021/12/14 01:56:43;;;;;;;20.27;10.90;;;8.40;99.90;;;;;;5027045;28;20055;-67
2021/12/14 01:59:23;;;;;;;20.90;10.98;;;8.40;99.90;;;;;;5036974;28;20113;-66
2021/12/14 02:02:08;;;;;;;23.02;12.02;;;8.50;99.90;;;;;;5023386;28;20436;-67
2021/12/14 02:04:38;;;;;;;17.95;9.88;;;8.40;99.90;;;;;;5036238;28;20442;-67
2021/12/14 02:07:06;;;;;;;17.05;10.80;;;8.40;99.90;;;;;;5037243;28;20041;-66
2021/12/14 02:09:33;;;;;;;18.90;11.07;;;8.50;99.90;;;;;;5038841;28;20033;-67
2021/12/14 02:12:06;;;;;;;20.73;11.10;;;8.50;99.90;;;;;;5045232;28;20037;-66
2021/12/14 02:14:32;;;;;;;20.63;11.52;;;8.50;99.90;;;;;;5039606;28;20045;-66
2021/12/14 02:17:01;;;;;;;22.07;11.67;;;8.50;99.90;;;;;;5026684;28;20048;-67
2021/12/14 02:19:28;;;;;;;20.58;11.60;;;8.50;99.90;;;;;;5043598;28;20382;-67
2021/12/14 02:21:54;;;;;;;;;;;8.50;99.90;;;;;;5042412;28;20037;-67
2021/12/14 02:24:22;;;;;;;22.40;11.82;;;8.40;99.90;;;;;;5023079;28;20292;-67
2021/12/14 02:26:52;;;;;;;21.13;12.27;;;8.40;99.90;;;;;;5029592;28;20055;-67
2021/12/14 02:29:39;;;;;;;20.15;11.40;;;8.50;99.90;;;;;;5024581;28;20405;-68
2021/12/14 02:32:09;;;;;;;20.10;11.75;;;8.50;99.90;;;;;;5042919;28;20053;-67
2021/12/14 02:34:41;;;;;;;21.23;12.32;;;8.40;99.90;;;;;;5043335;28;20431;-67
2021/12/14 02:39:48;;;;;;;20.05;12.02;;;8.40;99.90;;;;;;5037560;28;20054;-66
2021/12/14 02:42:22;;;;;;;24.70;13.07;;;8.50;99.90;;;;;;5004507;28;20037;-66
2021/12/14 02:44:50;;;;;;;22.40;12.98;;;8.50;99.90;;;;;;5028322;28;20041;-66
2021/12/14 02:47:18;;;;;;;25.65;13.73;;;8.50;99.90;;;;;;5008477;28;20048;-66
2021/12/14 02:49:46;;;;;;;23.65;12.90;;;8.40;99.90;;;;;;5007973;28;20292;-66
2021/12/14 02:52:15;;;;;;;26.10;13.88;;;8.50;99.90;;;;;;5019070;28;20033;-66
2021/12/14 02:54:48;;;;;;;27.30;13.35;;;8.40;99.90;;;;;;5011056;28;20087;-67
2021/12/14 02:57:22;;;;;;;24.77;13.68;;;8.40;99.90;;;;;;5009971;28;20076;-66
2021/12/14 02:59:49;;;;;;;24.63;13.32;;;8.40;99.90;;;;;;5019082;28;20068;-66
2021/12/14 03:02:21;;;;;;;25.50;13.52;;;8.40;99.90;;;;;;5024926;28;20117;-66
2021/12/14 03:04:59;;;;;;;23.60;14.23;;;8.50;99.90;;;;;;5023575;28;20073;-66
2021/12/14 03:07:29;;;;;;;29.60;15.05;;;8.50;99.90;;;;;;5006688;28;20112;-66
2021/12/14 03:10:17;;;;;;;23.15;13.43;;;8.40;99.90;;;;;;5031594;28;20123;-66
2021/12/14 03:12:52;;;;;;;23.00;14.40;;;8.40;99.90;;;;;;5022538;28;20038;-66
2021/12/14 03:15:28;;;;;;;26.40;14.65;;;8.40;99.90;;;;;;5027465;28;20505;-66
2021/12/14 03:17:58;;;;;;;24.27;14.02;;;8.40;99.90;;;;;;5031202;28;20558;-66
2021/12/14 03:20:32;;;;;;;28.67;14.98;;;8.40;99.90;;;;;;4991693;28;20092;-66
2021/12/14 03:23:18;;;;;;;26.92;15.63;;;8.50;99.90;;;;;;5008643;28;20051;-66
2021/12/14 03:25:48;;;;;;;30.35;15.43;;;8.40;99.90;;;;;;5027943;28;20056;-66
2021/12/14 03:28:16;;;;;;;27.92;15.00;;;8.40;99.90;;;;;;5033110;28;20037;-66
2021/12/14 03:30:49;;;;;;;28.05;15.15;;;8.50;99.90;;;;;;5026885;28;20044;-66
2021/12/14 03:33:23;;;;;;;26.30;14.65;;;8.40;99.90;;;;;;5011966;28;20477;-66
2021/12/14 03:35:54;;;;;;;27.33;14.65;;;8.40;99.90;;;;;;5011559;28;20056;-66
2021/12/14 03:38:36;;;;;;;27.60;15.30;;;8.50;99.90;;;;;;5031240;28;20078;-66
2021/12/14 03:41:06;;;;;;;28.38;14.20;;;8.40;99.90;;;;;;5004235;28;20046;-66
2021/12/14 03:43:33;;;;;;;25.75;14.88;;;8.50;99.90;;;;;;5013510;28;20072;-66
2021/12/14 03:45:59;;;;;;;29.67;15.77;;;8.40;99.90;;;;;;4999557;28;20045;-66
2021/12/14 03:48:28;;;;;;;29.73;15.13;;;8.40;99.90;;;;;;5010259;28;20076;-66
2021/12/14 03:50:54;;;;;;;30.30;15.52;;;8.30;99.90;;;;;;4996351;28;20060;-66
2021/12/14 03:53:22;;;;;;;27.20;16.13;;;8.30;99.90;;;;;;5011184;28;20128;-66
2021/12/14 03:55:57;;;;;;;28.73;15.55;;;8.30;99.90;;;;;;5011781;28;20045;-66
2021/12/14 03:58:35;;;;;;;29.50;14.57;;;8.30;99.90;;;;;;5005300;28;20111;-66
2021/12/14 04:01:07;;;;;;;28.92;15.23;;;8.30;99.90;;;;;;5013648;28;20117;-67
2021/12/14 04:03:34;;;;;;;26.25;14.73;;;8.30;99.90;;;;;;5027351;28;20120;-66
2021/12/14 04:06:00;;;;;;;;;;;8.30;99.90;;;;;;5009792;28;21138;-66
2021/12/14 04:08:28;;;;;;;27.17;14.63;;;8.30;99.90;;;;;;5019976;28;20457;-66
2021/12/14 04:10:55;;;;;;;32.17;15.80;;;8.30;99.90;;;;;;5015064;28;20041;-66
2021/12/14 04:13:25;;;;;;;27.77;15.30;;;8.30;99.90;;;;;;5023343;28;20121;-66
2021/12/14 04:15:52;;;;;;;34.22;15.50;;;8.30;99.90;;;;;;5011959;28;20180;-66
2021/12/14 04:18:18;;;;;;;28.90;15.20;;;8.30;99.90;;;;;;5028061;28;20034;-66
2021/12/14 04:20:46;;;;;;;29.33;15.85;;;8.30;99.90;;;;;;5031320;28;20041;-66
2021/12/14 04:23:22;;;;;;;33.17;16.25;;;8.30;99.90;;;;;;5011552;28;20034;-66
2021/12/14 04:25:50;;;;;;;32.72;17.00;;;8.30;99.90;;;;;;5025565;28;20498;-66
2021/12/14 04:28:20;;;;;;;29.85;15.90;;;8.30;99.90;;;;;;4997199;28;20075;-66
2021/12/14 04:30:47;;;;;;;27.20;15.52;;;8.30;99.90;;;;;;5026938;28;20072;-66
2021/12/14 04:33:16;;;;;;;26.42;15.27;;;8.30;99.90;;;;;;5011051;28;20049;-66
2021/12/14 04:35:44;;;;;;;30.10;15.63;;;8.30;99.90;;;;;;5002140;28;20522;-66
2021/12/14 04:38:25;;;;;;;29.85;15.00;;;8.20;99.90;;;;;;5007518;28;20383;-66
2021/12/14 04:52:18;;;;;;;31.67;17.15;;;8.20;99.90;;;;;;5002094;28;20053;-66
2021/12/14 04:54:59;;;;;;;29.95;16.80;;;8.20;99.90;;;;;;5009215;28;20144;-66
2021/12/14 04:57:33;;;;;;;30.42;15.73;;;8.20;99.90;;;;;;5015753;28;20044;-66
2021/12/14 05:00:19;;;;;;;40.03;15.82;;;8.20;99.90;;;;;;5030028;28;20061;-66
2021/12/14 05:02:46;;;;;;;33.85;16.30;;;8.20;99.90;;;;;;5010610;28;20030;-66
2021/12/14 05:05:21;;;;;;;28.95;16.30;;;8.20;99.90;;;;;;5023178;28;20048;-66
2021/12/14 05:09:20;;;;;;;34.13;17.05;;;8.20;99.90;;;;;;5005917;28;20057;-67
2021/12/14 05:10:57;;;;;;;28.83;16.67;;;8.20;99.90;;;;;;5006169;28;20057;-68
2021/12/14 05:13:44;;;;;;;33.33;16.83;;;8.20;99.90;;;;;;5004796;28;20041;-69
2021/12/14 05:16:19;;;;;;;30.55;16.20;;;8.20;99.90;;;;;;5018679;28;20056;-69
2021/12/14 05:18:51;;;;;;;29.83;16.05;;;8.20;99.90;;;;;;5029363;28;20037;-68
2021/12/14 05:21:25;;;;;;;29.05;16.15;;;8.20;99.90;;;;;;5013819;28;20146;-69
2021/12/14 05:23:51;;;;;;;31.33;16.05;;;8.20;99.90;;;;;;5011283;28;20091;-68
2021/12/14 05:26:17;;;;;;;33.58;17.88;;;8.20;99.90;;;;;;5008876;28;20490;-69
2021/12/14 05:28:43;;;;;;;33.47;16.87;;;8.20;99.90;;;;;;5026452;28;20065;-68
2021/12/14 05:31:09;;;;;;;;;;;8.20;99.90;;;;;;5007169;28;20038;-69
2021/12/14 05:33:36;;;;;;;32.05;17.00;;;8.20;99.90;;;;;;5023351;28;19979;-68
2021/12/14 05:36:08;;;;;;;31.98;16.33;;;8.20;99.90;;;;;;5009710;28;20037;-68
2021/12/14 05:39:34;;;;;;;38.28;18.65;;;8.20;99.90;;;;;;5012214;28;20037;-68
2021/12/14 05:44:15;;;;;;;34.95;18.05;;;8.20;99.90;;;;;;5026948;28;20192;-68
2021/12/14 05:46:49;;;;;;;37.05;17.25;;;8.20;99.90;;;;;;5014361;28;20040;-67
2021/12/14 05:49:18;;;;;;;32.10;18.15;;;8.20;99.90;;;;;;5007100;28;20040;-68
2021/12/14 05:51:43;;;;;;;36.55;18.58;;;8.20;99.90;;;;;;5009470;28;20334;-69
2021/12/14 05:54:09;;;;;;;35.58;19.33;;;8.20;99.90;;;;;;5009853;28;20072;-68
2021/12/14 05:56:35;;;;;;;36.57;18.83;;;8.20;99.90;;;;;;5025050;28;20029;-69
2021/12/14 05:59:03;;;;;;;35.57;18.97;;;8.20;99.90;;;;;;5006251;28;20037;-67
2021/12/14 06:01:32;;;;;;;33.38;18.00;;;8.20;99.90;;;;;;5025273;28;20033;-69
2021/12/14 06:04:03;;;;;;;35.53;19.10;;;8.20;99.90;;;;;;5008387;28;20037;-69
2021/12/14 06:06:36;;;;;;;34.17;18.67;;;8.20;99.90;;;;;;5001664;28;20041;-67
2021/12/14 06:09:33;;;;;;;33.53;18.40;;;8.20;99.90;;;;;;5029384;28;20041;-69
2021/12/14 06:12:03;;;;;;;38.90;18.87;;;8.10;99.90;;;;;;5007281;28;20261;-67
2021/12/14 06:14:30;;;;;;;36.30;18.38;;;8.10;99.90;;;;;;5023708;28;20414;-69
2021/12/14 06:16:59;;;;;;;37.33;19.55;;;8.10;99.90;;;;;;5031980;28;20112;-68
2021/12/14 06:19:32;;;;;;;39.97;20.35;;;8.10;99.90;;;;;;5022373;28;20044;-68
2021/12/14 06:22:06;;;;;;;38.78;19.83;;;8.10;99.90;;;;;;5023948;28;20041;-68
2021/12/14 06:24:35;;;;;;;36.63;18.95;;;8.10;99.90;;;;;;5019801;28;20048;-69
2021/12/14 06:27:03;;;;;;;39.55;20.13;;;8.10;99.90;;;;;;5014814;28;20441;-69
2021/12/14 06:29:36;;;;;;;39.38;19.58;;;8.10;99.90;;;;;;5006684;28;20486;-69
2021/12/14 06:32:09;;;;;;;37.13;19.50;;;8.10;99.90;;;;;;5002610;28;20041;-68
2021/12/14 06:34:42;;;;;;;34.50;18.65;;;8.10;99.90;;;;;;5004535;28;20058;-68
2021/12/14 06:40:12;;;;;;;38.97;19.77;;;8.10;99.90;;;;;;4980541;28;20040;-69
2021/12/14 06:42:42;;;;;;;37.13;19.83;;;8.10;99.90;;;;;;5022931;28;20048;-68
2021/12/14 06:45:12;;;;;;;36.85;19.20;;;8.10;99.90;;;;;;5029561;28;20513;-69
2021/12/14 06:47:39;;;;;;;43.80;20.75;;;8.10;99.90;;;;;;5012706;28;20060;-71
2021/12/14 06:50:10;;;;;;;41.50;19.35;;;8.10;99.90;;;;;;4993429;28;20517;-69
2021/12/14 06:52:36;;;;;;;43.85;20.73;;;8.10;99.90;;;;;;5012441;28;20371;-71
2021/12/14 06:55:05;;;;;;;39.58;20.17;;;8.10;99.90;;;;;;5006668;28;20041;-71
2021/12/14 06:57:31;;;;;;;40.45;20.73;;;8.10;99.90;;;;;;5007226;28;20549;-71
2021/12/14 06:59:57;;;;;;;;;;;8.10;99.90;;;;;;5002681;28;20029;-71
2021/12/14 07:02:25;;;;;;;42.22;20.00;;;8.10;99.90;;;;;;5032173;28;20289;-69
2021/12/14 07:04:51;;;;;;;40.83;20.08;;;8.10;99.90;;;;;;5026520;28;20064;-68
2021/12/14 07:07:24;;;;;;;43.70;19.70;;;8.10;99.90;;;;;;5002988;28;20260;-69
2021/12/14 07:09:57;;;;;;;42.47;20.92;;;8.10;99.90;;;;;;5014381;28;20052;-67
2021/12/14 07:12:33;;;;;;;41.03;20.88;;;8.10;99.90;;;;;;5006453;28;20041;-68
2021/12/14 07:15:01;;;;;;;41.88;19.20;;;8.10;99.90;;;;;;5007353;28;20041;-67
2021/12/14 07:17:31;;;;;;;47.33;21.98;;;8.10;99.90;;;;;;5004837;28;20056;-68
2021/12/14 07:20:05;;;;;;;44.85;21.52;;;8.10;99.90;;;;;;5001855;28;20042;-67
2021/12/14 07:22:49;;;;;;;44.55;22.10;;;8.20;99.90;;;;;;4997053;28;20038;-68
2021/12/14 07:25:30;;;;;;;49.47;22.67;;;8.10;99.90;;;;;;4989984;28;20095;-68
2021/12/14 07:28:16;;;;;;;41.92;20.92;;;8.20;99.90;;;;;;5007593;28;20383;-69
2021/12/14 07:30:56;;;;;;;41.50;20.02;;;8.20;99.90;;;;;;5020566;28;20060;-67
2021/12/14 07:33:34;;;;;;;46.28;23.27;;;8.10;99.90;;;;;;5029663;28;20064;-68
2021/12/14 07:36:11;;;;;;;41.58;21.75;;;8.20;99.90;;;;;;5026513;28;20048;-69
2021/12/14 07:38:47;;;;;;;45.85;21.83;;;8.20;99.90;;;;;;5002979;28;20076;-69
2021/12/14 07:41:18;;;;;;;46.17;21.88;;;8.20;99.90;;;;;;5030285;28;20040;-69
2021/12/14 07:43:59;;;;;;;46.53;21.77;;;8.20;99.90;;;;;;5007533;28;20060;-69
2021/12/14 07:46:43;;;;;;;51.72;22.00;;;8.20;99.90;;;;;;5022634;28;20421;-69
2021/12/14 07:49:21;;;;;;;41.03;20.98;;;8.20;99.90;;;;;;5002297;28;20059;-69
2021/12/14 07:51:51;;;;;;;45.58;21.25;;;8.20;99.90;;;;;;5002654;28;20034;-68
2021/12/14 07:54:24;;;;;;;44.75;20.73;;;8.20;99.90;;;;;;5024355;28;20257;-67
2021/12/14 07:56:59;;;;;;;48.80;21.27;;;8.20;99.90;;;;;;5031652;28;20041;-69
2021/12/14 07:59:33;;;;;;;44.15;20.92;;;8.20;99.90;;;;;;5018751;28;20043;-69
2021/12/14 08:02:13;;;;;;;48.72;20.80;;;8.30;99.90;;;;;;5033133;28;20507;-69
2021/12/14 08:04:43;;;;;;;44.38;21.42;;;8.30;99.90;;;;;;5006925;28;20498;-68
2021/12/14 08:07:09;;;;;;;45.40;22.08;;;8.30;99.90;;;;;;5002389;28;20045;-68
2021/12/14 08:09:49;;;;;;;43.92;21.75;;;8.30;99.90;;;;;;5022261;28;20468;-69
2021/12/14 08:12:39;;;;;;;46.30;22.10;;;8.30;99.90;;;;;;5022982;28;20033;-69
2021/12/14 08:15:30;;;;;;;44.60;21.33;;;8.30;99.90;;;;;;5007835;28;20042;-69
2021/12/14 08:18:20;;;;;;;48.80;22.60;;;8.30;99.90;;;;;;5026948;28;20033;-69
2021/12/14 08:20:52;;;;;;;43.72;20.50;;;8.30;99.90;;;;;;5026427;28;20124;-69
2021/12/14 08:23:25;;;;;;;41.80;20.73;;;8.30;99.90;;;;;;5010394;28;20583;-69
2021/12/14 08:25:54;;;;;;;41.95;20.55;;;8.30;99.90;;;;;;5023250;28;20107;-69
2021/12/14 08:28:21;;;;;;;47.10;22.05;;;8.40;99.90;;;;;;5026874;28;20091;-68
2021/12/14 08:31:02;;;;;;;47.28;22.27;;;8.30;99.90;;;;;;5023301;28;20121;-69
2021/12/14 08:33:29;;;;;;;40.78;20.05;;;8.30;99.90;;;;;;5005526;28;20045;-68
2021/12/14 08:35:59;;;;;;;49.50;21.10;;;8.40;99.90;;;;;;5010173;28;20037;-69
2021/12/14 08:38:27;;;;;;;46.15;20.73;;;8.40;99.90;;;;;;5040007;22;20037;-70
2021/12/14 08:40:58;;;;;;;42.97;19.88;;;8.40;99.90;;;;;;5057142;28;20393;-70
2021/12/14 08:43:31;;;;;;;42.65;19.35;;;8.40;99.90;;;;;;5043476;28;20056;-71
2021/12/14 08:46:06;;;;;;;42.90;20.38;;;8.40;99.90;;;;;;5043865;28;20135;-71
2021/12/14 08:48:38;;;;;;;44.17;21.70;;;8.40;99.90;;;;;;5033718;28;20907;-70
2021/12/14 08:51:16;;;;;;;42.70;20.15;;;8.40;99.90;;;;;;5045629;28;20045;-70
2021/12/14 08:53:49;;;;;;;47.33;20.98;;;8.40;99.90;;;;;;5035652;28;20036;-70
2021/12/14 08:56:19;;;;;;;40.47;19.95;;;8.40;99.90;;;;;;5026353;28;20040;-70
2021/12/14 08:58:45;;;;;;;42.75;21.27;;;8.50;99.90;;;;;;5027765;28;20504;-70
2021/12/14 09:01:15;;;;;;;;;;;8.50;99.90;;;;;;5020498;28;20409;-71
2021/12/14 09:03:46;;;;;;;42.28;18.73;;;8.50;99.90;;;;;;5025215;28;20342;-70
2021/12/14 09:06:16;;;;;;;44.25;20.27;;;8.40;99.90;;;;;;5038174;28;20409;-70
2021/12/14 09:08:44;;;;;;;43.53;21.45;;;8.50;99.90;;;;;;5041249;28;20116;-71
2021/12/14 09:11:13;;;;;;;39.33;19.70;;;8.50;99.90;;;;;;5027462;28;20509;-70
2021/12/14 09:13:40;;;;;;;43.53;19.40;;;8.50;99.90;;;;;;5019464;28;20048;-70
2021/12/14 09:16:08;;;;;;;;;;;8.50;99.90;;;;;;5024160;28;20083;-70
2021/12/14 09:18:38;;;;;;;37.47;19.63;;;8.50;99.90;;;;;;5043449;28;20043;-70
2021/12/14 09:21:09;;;;;;;40.13;19.73;;;8.50;99.90;;;;;;5042658;28;20326;-70
2021/12/14 09:23:41;;;;;;;47.47;20.48;;;8.50;99.90;;;;;;5025034;28;20037;-71
2021/12/14 09:26:13;;;;;;;42.03;19.45;;;8.50;99.90;;;;;;5020114;28;20059;-70
2021/12/14 09:28:39;;;;;;;47.50;20.83;;;8.60;99.90;;;;;;5040830;28;20270;-70
2021/12/14 09:31:08;;;;;;;43.83;21.13;;;8.50;99.90;;;;;;5016228;28;20224;-70
2021/12/14 09:33:38;;;;;;;43.33;19.40;;;8.60;99.90;;;;;;5041160;28;20052;-70
2021/12/14 09:36:11;;;;;;;45.05;19.95;;;8.60;99.90;;;;;;5041653;28;20041;-71
2021/12/14 09:38:40;;;;;;;44.38;21.38;;;8.60;99.90;;;;;;5018119;28;20506;-70
2021/12/14 09:41:09;;;;;;;46.38;20.55;;;8.60;99.90;;;;;;5028245;28;20447;-71
2021/12/14 09:43:35;;;;;;;47.83;20.38;;;8.60;99.90;;;;;;5021751;28;20098;-70
2021/12/14 09:46:04;;;;;;;43.17;19.00;;;8.60;99.90;;;;;;5016800;28;20517;-70
2021/12/14 09:48:40;;;;;;;49.80;20.13;;;8.60;99.90;;;;;;5026666;28;20053;-70
2021/12/14 09:51:13;;;;;;;38.75;19.08;;;8.60;99.90;;;;;;5042112;28;20497;-70
2021/12/14 09:53:42;;;;;;;42.30;18.15;;;8.60;99.90;;;;;;5025127;28;20037;-71
2021/12/14 09:56:13;;;;;;;47.97;21.52;;;8.60;99.90;;;;;;5045687;28;20040;-70
2021/12/14 09:58:43;;;;;;;46.58;20.67;;;8.60;99.90;;;;;;5015068;28;20044;-71
2021/12/14 10:01:23;;;;;;;39.28;17.30;;;8.60;99.90;;;;;;5019234;28;20559;-70
2021/12/14 10:03:55;;;;;;;42.30;19.92;;;8.70;99.90;;;;;;5021208;28;20082;-71
2021/12/14 10:06:24;;;;;;;50.22;19.00;;;8.70;99.90;;;;;;5041349;28;20086;-70
2021/12/14 10:08:57;;;;;;;40.80;19.27;;;8.70;99.90;;;;;;5016525;28;20463;-70
2021/12/14 10:12:01;;;;;;;43.10;18.95;;;8.70;99.90;;;;;;5042254;28;20037;-70
2021/12/14 10:14:35;;;;;;;48.10;19.30;;;8.70;99.90;;;;;;5043413;28;20044;-69
2021/12/14 10:17:02;;;;;;;42.22;19.23;;;8.70;99.90;;;;;;5044602;28;20053;-70
2021/12/14 10:19:32;;;;;;;40.80;18.05;;;8.70;99.90;;;;;;5027742;28;20429;-70
2021/12/14 10:22:03;;;;;;;41.00;18.45;;;8.70;99.90;;;;;;5041471;28;20407;-70
2021/12/14 10:24:29;;;;;;;38.38;17.73;;;8.70;99.90;;;;;;5043528;28;20386;-70
2021/12/14 10:26:59;;;;;;;44.10;17.33;;;8.70;99.90;;;;;;5020971;28;20101;-70
2021/12/14 10:29:29;;;;;;;42.35;18.70;;;8.80;99.90;;;;;;5039691;28;20028;-70
2021/12/14 10:32:02;;;;;;;42.00;17.58;;;8.70;99.90;;;;;;5017201;28;20045;-71
2021/12/14 10:34:31;;;;;;;36.85;16.90;;;8.80;99.90;;;;;;5020874;28;20500;-70
2021/12/14 10:37:15;;;;;;;40.65;16.58;;;8.70;99.90;;;;;;5038961;28;20037;-70
2021/12/14 10:42:41;;;;;;;36.22;18.13;;;8.80;99.90;;;;;;5019566;28;20136;-70
2021/12/14 10:45:15;;;;;;;39.08;17.30;;;8.80;99.90;;;;;;5031765;28;20037;-71
2021/12/14 10:47:41;;;;;;;37.95;16.88;;;8.80;99.90;;;;;;5043985;28;20058;-70
2021/12/14 10:50:13;;;;;;;36.72;16.65;;;8.80;99.90;;;;;;5025510;28;20041;-71
2021/12/14 10:52:42;;;;;;;41.22;17.48;;;8.80;99.90;;;;;;5024365;28;20111;-71
2021/12/14 10:55:16;;;;;;;40.10;16.45;;;8.80;99.90;;;;;;5021675;28;20473;-70
2021/12/14 10:57:43;;;;;;;40.70;17.48;;;8.90;99.90;;;;;;5026048;28;20037;-71
2021/12/14 11:00:30;;;;;;;37.00;16.20;;;8.90;99.90;;;;;;5019160;28;20474;-70
2021/12/14 11:03:05;;;;;;;35.65;15.05;;;8.90;99.90;;;;;;5010226;28;20037;-71
2021/12/14 11:05:33;;;;;;;36.58;15.52;;;8.90;99.90;;;;;;5013960;28;20037;-71
2021/12/14 11:07:59;;;;;;;34.83;13.10;;;8.90;99.90;;;;;;5021470;28;20052;-70
2021/12/14 11:10:38;;;;;;;;;;;8.90;99.90;;;;;;5032813;28;20391;-71
2021/12/14 11:13:08;;;;;;;28.23;12.63;;;9.00;99.90;;;;;;5019710;28;19917;-70
2021/12/14 11:15:43;;;;;;;28.10;12.48;;;9.00;99.90;;;;;;5021308;28;20041;-70
2021/12/14 11:18:18;;;;;;;27.17;12.25;;;9.00;99.90;;;;;;5035178;28;20479;-70
2021/12/14 11:21:04;;;;;;;29.30;13.00;;;9.00;99.90;;;;;;5042830;28;20112;-70
2021/12/14 11:23:38;;;;;;;30.90;13.13;;;9.00;99.90;;;;;;5037676;28;20131;-69
2021/12/14 11:26:21;;;;;;;32.33;12.80;;;9.00;99.90;;;;;;5021374;28;20044;-71
2021/12/14 11:28:57;;;;;;;32.65;12.77;;;9.00;99.90;;;;;;5041208;28;20105;-70
2021/12/14 11:31:45;;;;;;;31.75;14.15;;;9.10;99.90;;;;;;5011004;28;20549;-70
2021/12/14 11:34:15;;;;;;;29.70;12.90;;;9.10;99.90;;;;;;5041325;28;20045;-70
2021/12/14 11:36:52;;;;;;;30.83;13.55;;;9.00;99.90;;;;;;5046701;28;20435;-70
2021/12/14 11:39:28;;;;;;;34.77;13.67;;;9.00;99.90;;;;;;5047635;28;20029;-70
2021/12/14 11:42:01;;;;;;;32.13;12.97;;;9.00;99.90;;;;;;5031294;28;20041;-70
2021/12/14 11:44:31;;;;;;;28.05;13.00;;;9.00;99.90;;;;;;5027458;28;20045;-70
2021/12/14 11:47:03;;;;;;;28.58;13.00;;;9.00;99.90;;;;;;5026658;28;20045;-70
2021/12/14 11:49:41;;;;;;;31.92;13.07;;;8.90;99.90;;;;;;5044639;28;20045;-70
2021/12/14 11:52:06;;;;;;;31.75;13.85;;;9.00;99.90;;;;;;5043301;28;20025;-70
2021/12/14 11:54:41;;;;;;;31.07;13.17;;;9.00;99.90;;;;;;5029934;28;20060;-70
2021/12/14 11:57:07;;;;;;;29.80;12.77;;;9.00;99.90;;;;;;5040424;28;20038;-70
2021/12/14 11:59:33;;;;;;;30.05;12.35;;;9.00;99.90;;;;;;5019810;28;20524;-71
2021/12/14 12:02:02;;;;;;;30.17;12.70;;;9.00;99.90;;;;;;5027487;28;20137;-71
2021/12/14 12:04:34;;;;;;;28.85;12.70;;;9.10;99.90;;;;;;5042607;28;20067;-70
2021/12/14 12:09:48;;;;;;;28.30;11.95;;;9.10;99.90;;;;;;5025835;28;20059;-71
2021/12/14 12:12:22;;;;;;;26.48;12.23;;;9.10;99.90;;;;;;5047142;28;20045;-70
2021/12/14 12:15:06;;;;;;;26.15;11.82;;;9.10;99.90;;;;;;5009771;28;20049;-70
2021/12/14 12:17:40;;;;;;;25.92;11.35;;;9.10;99.90;;;;;;5024447;28;20047;-70
2021/12/14 12:20:13;;;;;;;21.65;11.10;;;9.10;99.90;;;;;;5019854;28;20367;-70
2021/12/14 12:23:01;;;;;;;24.10;10.45;;;9.10;99.90;;;;;;5030412;28;20079;-70
2021/12/14 12:25:46;;;;;;;20.67;9.45;;;9.10;99.90;;;;;;5014142;28;20049;-70
2021/12/14 12:28:15;;;;;;;20.67;9.52;;;9.10;99.90;;;;;;5045163;28;20443;-70
2021/12/14 12:30:48;;;;;;;20.30;9.75;;;9.20;99.90;;;;;;5018065;28;20049;-70
2021/12/14 12:33:36;;;;;;;21.92;10.48;;;9.20;99.90;;;;;;5020842;28;20076;-70
2021/12/14 12:36:15;;;;;;;26.05;10.82;;;9.20;99.90;;;;;;5004520;28;20456;-69
2021/12/14 12:39:09;;;;;;;27.83;12.10;;;9.30;99.90;;;;;;5024239;28;20045;-71
2021/12/14 12:41:39;;;;;;;26.23;11.35;;;9.30;99.90;;;;;;5029213;28;20410;-70
2021/12/14 12:44:17;;;;;;;30.58;12.25;;;9.30;99.90;;;;;;5024922;28;20094;-71
2021/12/14 12:46:56;;;;;;;28.40;12.95;;;9.30;99.90;;;;;;5036928;28;20032;-70
2021/12/14 12:49:40;;;;;;;22.48;11.13;;;9.30;99.90;;;;;;5025083;28;20075;-70
2021/12/14 12:52:30;;;;;;;27.70;12.30;;;9.30;99.90;;;;;;5027768;28;20063;-70
2021/12/14 12:55:10;;;;;;;38.75;12.73;;;9.30;99.90;;;;;;5042354;28;20065;-70
2021/12/14 12:57:55;;;;;;;24.00;12.05;;;9.40;99.90;;;;;;5042179;28;20357;-70
2021/12/14 13:00:52;;;;;;;30.20;13.48;;;9.30;99.90;;;;;;5027750;28;20110;-70
2021/12/14 13:03:17;;;;;;;30.13;12.90;;;9.40;99.90;;;;;;5023688;28;20208;-70
2021/12/14 13:05:55;;;;;;;31.37;13.57;;;9.40;99.90;;;;;;5021252;28;20131;-70
2021/12/14 13:08:26;;;;;;;31.25;12.02;;;9.30;99.90;;;;;;5041895;28;20044;-70
2021/12/14 13:11:03;;;;;;;36.33;13.48;;;9.40;99.90;;;;;;5043951;28;20037;-70
2021/12/14 13:13:50;;;;;;;27.30;12.45;;;9.30;99.90;;;;;;5029202;28;20714;-72
2021/12/14 13:16:20;;;;;;;30.60;12.63;;;9.30;99.90;;;;;;5026557;28;20260;-77
2021/12/14 13:19:10;;;;;;;32.90;13.20;;;9.30;99.90;;;;;;5019009;28;20117;-70
2021/12/14 13:21:47;;;;;;;27.33;11.93;;;9.40;99.90;;;;;;5041595;28;20041;-71
2021/12/14 13:24:23;;;;;;;21.88;11.32;;;9.30;99.90;;;;;;5019510;28;20365;-71
2021/12/14 13:27:00;;;;;;;22.50;10.05;;;9.40;99.90;;;;;;5024229;28;20350;-71
2021/12/14 13:29:29;;;;;;;;;;;9.30;99.90;;;;;;5043719;28;20029;-72
2021/12/14 13:32:02;;;;;;;24.15;10.50;;;9.30;99.90;;;;;;5023598;28;19917;-70
2021/12/14 13:34:36;;;;;;;24.08;10.70;;;9.30;99.90;;;;;;5023111;28;20502;-71
2021/12/14 13:37:04;;;;;;;22.00;11.57;;;9.30;99.90;;;;;;5043494;28;20044;-71
2021/12/14 13:39:31;;;;;;;25.08;10.27;;;9.30;99.90;;;;;;5019865;28;20045;-71
2021/12/14 13:41:59;;;;;;;19.65;9.63;;;9.30;99.90;;;;;;5037716;28;20041;-71